createdAt,value
2018-06-02T00:00:41.207Z,101176.67
2018-06-02T00:03:09.510Z,101183.06
2018-06-02T00:05:38.574Z,101181.80
2018-06-02T00:08:07.441Z,101168.91
2018-06-02T00:10:35.743Z,101172.64
2018-06-02T00:13:05.572Z,101163.16
2018-06-02T00:15:33.882Z,101168.44
2018-06-02T00:18:02.198Z,101175.16
2018-06-02T00:20:30.809Z,101184.05
2018-06-02T00:22:59.110Z,101185.34
2018-06-02T00:25:28.177Z,101169.63
2018-06-02T00:27:57.369Z,101172.13
2018-06-02T00:30:26.373Z,101167.16
2018-06-02T00:32:56.158Z,101166.88
2018-06-02T00:35:24.649Z,101158.46
2018-06-02T00:37:52.938Z,101161.75
2018-06-02T00:40:21.854Z,101160.39
2018-06-02T00:42:51.040Z,101162.52
2018-06-02T00:45:19.412Z,101169.02
2018-06-02T00:47:49.321Z,101174.54
2018-06-02T00:50:20.104Z,101180.25
2018-06-02T00:52:48.452Z,101174.59
2018-06-02T00:55:16.744Z,101178.35
2018-06-02T00:57:45.838Z,101184.31
2018-06-02T01:00:14.974Z,101183.64
2018-06-02T01:02:43.825Z,101179.19
2018-06-02T01:05:12.892Z,101185.52
2018-06-02T01:07:41.650Z,101191.22
2018-06-02T01:10:09.959Z,101191.30
2018-06-02T01:12:38.341Z,101191.92
2018-06-02T01:15:06.739Z,101185.73
2018-06-02T01:17:35.082Z,101180.27
2018-06-02T01:20:03.377Z,101174.55
2018-06-02T01:22:31.726Z,101175.45
2018-06-02T01:25:00.066Z,101168.56
2018-06-02T01:27:29.906Z,101165.55
2018-06-02T01:29:59.757Z,101167.52
2018-06-02T01:32:28.156Z,101176.92
2018-06-02T01:34:56.486Z,101177.98
2018-06-02T01:37:26.136Z,101184.41
2018-06-02T01:39:54.430Z,101180.34
2018-06-02T01:42:23.446Z,101183.20
2018-06-02T01:44:52.572Z,101182.23
2018-06-02T01:47:20.944Z,101180.05
2018-06-02T01:49:49.992Z,101181.32
2018-06-02T01:52:18.873Z,101183.50
2018-06-02T01:54:47.189Z,101190.38
2018-06-02T01:57:16.914Z,101187.13
2018-06-02T01:59:45.204Z,101184.25
2018-06-02T02:02:13.836Z,101182.57
2018-06-02T02:04:42.154Z,101185.92
2018-06-02T02:07:12.098Z,101179.17
2018-06-02T02:09:41.618Z,101182.09
2018-06-02T02:12:09.954Z,101177.22
2018-06-02T02:14:39.025Z,101180.28
2018-06-02T02:17:08.156Z,101181.17
2018-06-02T02:19:37.518Z,101181.23
2018-06-02T02:22:06.148Z,101181.14
2018-06-02T02:24:36.190Z,101173.66
2018-06-02T02:27:04.589Z,101168.55
2018-06-02T02:29:33.110Z,101177.77
2018-06-02T02:32:03.749Z,101171.25
2018-06-02T02:34:33.758Z,101167.62
2018-06-02T02:37:03.235Z,101166.19
2018-06-02T02:39:31.534Z,101172.75
2018-06-02T02:41:59.852Z,101182.80
2018-06-02T02:44:28.270Z,101174.12
2018-06-02T02:46:57.160Z,101182.44
2018-06-02T02:49:25.515Z,101183.81
2018-06-02T02:51:54.621Z,101189.36
2018-06-02T02:54:22.979Z,101195.67
2018-06-02T02:56:51.395Z,101196.70
2018-06-02T02:59:20.290Z,101198.95
2018-06-02T03:01:49.283Z,101200.52
2018-06-02T03:04:17.621Z,101205.02
2018-06-02T03:06:46.358Z,101201.52
2018-06-02T03:09:15.455Z,101191.57
2018-06-02T03:11:43.894Z,101196.52
2018-06-02T03:14:12.210Z,101196.25
2018-06-02T03:16:42.267Z,101204.61
2018-06-02T03:19:11.373Z,101205.34
2018-06-02T03:21:40.420Z,101204.85
2018-06-02T03:24:08.721Z,101203.02
2018-06-02T03:26:37.271Z,101206.48
2018-06-02T03:29:05.574Z,101209.84
2018-06-02T03:31:36.019Z,101216.31
2018-06-02T03:34:05.151Z,101215.70
2018-06-02T03:36:33.948Z,101220.56
2018-06-02T03:39:03.102Z,101224.16
2018-06-02T03:41:32.173Z,101226.37
2018-06-02T03:44:00.547Z,101235.31
2018-06-02T03:46:28.871Z,101241.58
2018-06-02T03:48:57.918Z,101242.77
2018-06-02T03:51:26.597Z,101243.76
2018-06-02T03:53:54.894Z,101241.64
2018-06-02T03:56:25.910Z,101248.20
2018-06-02T03:58:54.218Z,101247.93
2018-06-02T04:01:22.553Z,101252.33
2018-06-02T04:03:51.686Z,101254.05
2018-06-02T04:06:20.879Z,101247.20
2018-06-02T04:08:49.258Z,101245.58
2018-06-02T04:11:17.763Z,101249.05
2018-06-02T04:13:47.263Z,101249.52
2018-06-02T04:16:15.583Z,101243.13
2018-06-02T04:18:44.573Z,101245.09
2018-06-02T04:21:13.299Z,101251.80
2018-06-02T04:23:42.888Z,101245.47
2018-06-02T04:26:11.183Z,101235.81
2018-06-02T04:28:42.958Z,101244.11
2018-06-02T04:31:12.441Z,101241.63
2018-06-02T04:33:40.739Z,101241.14
2018-06-02T04:36:12.922Z,101241.48
2018-06-02T04:38:42.013Z,101241.85
2018-06-02T04:41:10.332Z,101238.46
2018-06-02T04:43:39.514Z,101226.08
2018-06-02T04:46:13.564Z,101223.33
2018-06-02T04:48:41.908Z,101225.31
2018-06-02T04:51:11.084Z,101225.08
2018-06-02T04:53:39.376Z,101230.87
2018-06-02T04:56:07.682Z,101237.48
2018-06-02T04:58:36.835Z,101237.13
2018-06-02T05:01:05.636Z,101244.45
2018-06-02T05:03:33.926Z,101244.02
2018-06-02T05:06:03.090Z,101242.75
2018-06-02T05:08:32.443Z,101255.48
2018-06-02T05:11:01.523Z,101254.65
2018-06-02T05:13:31.427Z,101260.64
2018-06-02T05:15:59.908Z,101258.89
2018-06-02T05:18:30.140Z,101264.06
2018-06-02T05:20:58.815Z,101268.09
2018-06-02T05:23:28.610Z,101272.25
2018-06-02T05:25:56.921Z,101276.39
2018-06-02T05:28:27.358Z,101272.39
2018-06-02T05:31:04.588Z,101271.81
2018-06-02T05:33:34.250Z,101275.77
2018-06-02T05:36:04.309Z,101280.24
2018-06-02T05:38:32.920Z,101282.88
2018-06-02T05:41:01.324Z,101279.66
2018-06-02T05:43:29.678Z,101271.13
2018-06-02T05:45:58.967Z,101273.73
2018-06-02T05:48:28.120Z,101271.20
2018-06-02T05:50:57.190Z,101269.84
2018-06-02T05:53:25.552Z,101274.26
2018-06-02T05:55:54.138Z,101271.20
2018-06-02T05:58:23.721Z,101276.19
2018-06-02T06:00:52.016Z,101276.95
2018-06-02T06:03:21.362Z,101277.45
2018-06-02T06:05:49.990Z,101275.98
2018-06-02T06:08:19.771Z,101278.20
2018-06-02T06:10:48.126Z,101279.16
2018-06-02T06:13:18.771Z,101273.17
2018-06-02T06:15:47.193Z,101281.12
2018-06-02T06:18:15.893Z,101279.94
2018-06-02T06:20:44.379Z,101284.42
2018-06-02T06:23:14.022Z,101285.55
2018-06-02T06:25:42.988Z,101288.70
2018-06-02T06:28:11.610Z,101286.88
2018-06-02T06:30:40.352Z,101295.19
2018-06-02T06:33:08.901Z,101294.13
2018-06-02T06:35:38.002Z,101300.19
2018-06-02T06:38:07.875Z,101309.88
2018-06-02T06:40:37.674Z,101313.41
2018-06-02T06:43:06.781Z,101318.81
2018-06-02T06:45:36.017Z,101319.95
2018-06-02T06:48:05.826Z,101333.10
2018-06-02T06:50:34.908Z,101338.08
2018-06-02T06:53:04.263Z,101332.11
2018-06-02T06:55:33.401Z,101325.25
2018-06-02T06:58:03.211Z,101323.73
2018-06-02T07:00:32.325Z,101328.33
2018-06-02T07:03:01.087Z,101316.77
2018-06-02T07:05:29.405Z,101322.47
2018-06-02T07:07:59.878Z,101326.25
2018-06-02T07:10:28.772Z,101324.87
2018-06-02T07:12:57.379Z,101324.63
2018-06-02T07:15:26.301Z,101321.80
2018-06-02T07:17:56.387Z,101318.99
2018-06-02T07:20:24.969Z,101322.20
2018-06-02T07:22:53.747Z,101322.85
2018-06-02T07:25:22.056Z,101315.85
2018-06-02T07:27:51.129Z,101320.98
2018-06-02T07:30:19.750Z,101324.17
2018-06-02T07:32:48.683Z,101334.92
2018-06-02T07:35:17.060Z,101334.99
2018-06-02T07:37:45.972Z,101334.63
2018-06-02T07:40:14.282Z,101331.55
2018-06-02T07:42:42.605Z,101332.37
2018-06-02T07:45:10.941Z,101330.77
2018-06-02T07:47:40.773Z,101329.97
2018-06-02T07:50:10.819Z,101325.77
2018-06-02T07:52:39.914Z,101321.13
2018-06-02T07:55:09.765Z,101327.81
2018-06-02T07:57:39.418Z,101324.39
2018-06-02T08:00:09.294Z,101326.24
2018-06-02T08:02:38.141Z,101331.80
2018-06-02T08:05:08.115Z,101334.38
2018-06-02T08:07:38.434Z,101332.82
2018-06-02T08:13:11.411Z,101338.58
2018-06-02T08:15:39.783Z,101328.31
2018-06-02T08:18:09.826Z,101327.11
2018-06-02T08:20:38.222Z,101326.38
2018-06-02T08:23:06.748Z,101321.63
2018-06-02T08:25:35.067Z,101316.74
2018-06-02T08:28:03.366Z,101311.00
2018-06-02T08:30:31.694Z,101305.25
2018-06-02T08:33:00.117Z,101301.42
2018-06-02T08:35:28.513Z,101318.31
2018-06-02T08:37:58.611Z,101328.70
2018-06-02T08:40:27.276Z,101339.17
2018-06-02T08:42:55.742Z,101352.88
2018-06-02T08:45:24.167Z,101349.55
2018-06-02T08:47:52.728Z,101345.34
2018-06-02T08:50:21.348Z,101347.08
2018-06-02T08:52:49.673Z,101360.23
2018-06-02T08:55:18.190Z,101354.70
2018-06-02T08:57:47.282Z,101359.55
2018-06-02T09:00:15.854Z,101351.23
2018-06-02T09:02:44.503Z,101352.50
2018-06-02T09:05:14.601Z,101357.02
2018-06-02T09:07:43.768Z,101365.78
2018-06-02T09:10:12.425Z,101364.45
2018-06-02T09:12:40.851Z,101364.82
2018-06-02T09:15:09.301Z,101369.52
2018-06-02T09:17:37.615Z,101371.56
2018-06-02T09:20:06.695Z,101376.56
2018-06-02T09:22:35.148Z,101371.88
2018-06-02T09:25:03.492Z,101373.03
2018-06-02T09:27:32.515Z,101375.39
2018-06-02T09:30:01.349Z,101380.59
2018-06-02T09:32:30.270Z,101382.21
2018-06-02T09:34:59.082Z,101391.62
2018-06-02T09:37:27.933Z,101386.37
2018-06-02T09:39:56.654Z,101388.02
2018-06-02T09:42:26.349Z,101388.45
2018-06-02T09:44:56.250Z,101388.60
2018-06-02T09:47:24.790Z,101391.84
2018-06-02T09:49:53.122Z,101387.55
2018-06-02T09:52:23.889Z,101389.24
2018-06-02T09:54:53.239Z,101395.27
2018-06-02T09:57:21.584Z,101394.44
2018-06-02T09:59:50.924Z,101394.67
2018-06-02T10:02:19.401Z,101393.41
2018-06-02T10:04:48.546Z,101395.71
2018-06-02T10:07:17.670Z,101399.13
2018-06-02T10:09:47.473Z,101394.50
2018-06-02T10:12:17.340Z,101395.41
2018-06-02T10:14:47.222Z,101390.02
2018-06-02T10:17:15.535Z,101392.85
2018-06-02T10:19:44.600Z,101400.92
2018-06-02T10:22:13.109Z,101397.50
2018-06-02T10:24:41.433Z,101401.49
2018-06-02T10:27:09.766Z,101399.69
2018-06-02T10:29:39.023Z,101401.47
2018-06-02T10:32:09.565Z,101400.16
2018-06-02T10:34:38.634Z,101396.91
2018-06-02T10:37:08.430Z,101395.14
2018-06-02T10:39:38.394Z,101401.28
2018-06-02T10:42:06.734Z,101395.78
2018-06-02T10:44:35.980Z,101406.10
2018-06-02T10:47:04.454Z,101407.02
2018-06-02T10:49:32.866Z,101409.98
2018-06-02T10:52:01.346Z,101412.09
2018-06-02T10:54:30.529Z,101416.31
2018-06-02T10:56:58.866Z,101418.41
2018-06-02T10:59:28.617Z,101420.10
2018-06-02T11:01:56.949Z,101417.69
2018-06-02T11:04:26.066Z,101419.42
2018-06-02T11:06:54.391Z,101421.78
2018-06-02T11:09:22.752Z,101416.81
2018-06-02T11:11:51.059Z,101413.72
2018-06-02T11:14:20.868Z,101416.34
2018-06-02T11:16:49.251Z,101422.77
2018-06-02T11:19:17.618Z,101417.70
2018-06-02T11:21:46.249Z,101427.11
2018-06-02T11:24:15.615Z,101421.28
2018-06-02T11:26:47.053Z,101427.07
2018-06-02T11:29:16.733Z,101421.48
2018-06-02T11:31:45.644Z,101419.47
2018-06-02T11:34:14.819Z,101421.83
2018-06-02T11:36:43.137Z,101421.92
2018-06-02T11:39:11.443Z,101417.05
2018-06-02T11:41:40.808Z,101418.52
2018-06-02T11:44:09.528Z,101415.98
2018-06-02T11:46:38.749Z,101418.11
2018-06-02T11:49:08.668Z,101424.45
2018-06-02T11:51:37.829Z,101418.47
2018-06-02T11:54:06.131Z,101419.70
2018-06-02T11:56:36.045Z,101423.03
2018-06-02T11:59:04.397Z,101422.27
2018-06-02T12:01:33.620Z,101422.84
2018-06-02T12:04:01.927Z,101420.84
2018-06-02T12:06:31.172Z,101422.96
2018-06-02T12:08:59.491Z,101420.23
2018-06-02T12:11:28.662Z,101427.62
2018-06-02T12:13:59.303Z,101427.75
2018-06-02T12:16:28.500Z,101428.69
2018-06-02T12:18:59.252Z,101426.13
2018-06-02T12:21:27.612Z,101442.08
2018-06-02T12:23:57.871Z,101442.84
2018-06-02T12:26:26.966Z,101446.20
2018-06-02T12:28:57.495Z,101443.87
2018-06-02T12:31:26.594Z,101452.27
2018-06-02T12:33:56.134Z,101453.05
2018-06-02T12:36:24.860Z,101455.17
2018-06-02T12:38:53.951Z,101451.76
2018-06-02T12:41:23.566Z,101450.55
2018-06-02T12:43:53.395Z,101457.84
2018-06-02T12:46:24.472Z,101454.75
2018-06-02T12:48:52.895Z,101454.83
2018-06-02T12:51:21.585Z,101455.30
2018-06-02T12:53:49.923Z,101448.25
2018-06-02T12:56:19.705Z,101445.66
2018-06-02T12:58:49.582Z,101445.19
2018-06-02T13:01:18.657Z,101447.09
2018-06-02T13:03:47.370Z,101442.23
2018-06-02T13:06:15.844Z,101448.24
2018-06-02T13:08:44.872Z,101450.06
2018-06-02T13:11:13.979Z,101443.66
2018-06-02T13:13:43.132Z,101448.95
2018-06-02T13:16:12.137Z,101442.84
2018-06-02T13:18:41.358Z,101441.22
2018-06-02T13:21:09.950Z,101444.48
2018-06-02T13:23:39.206Z,101441.28
2018-06-02T13:26:07.621Z,101437.27
2018-06-02T13:28:35.954Z,101438.05
2018-06-02T13:31:04.249Z,101438.47
2018-06-02T13:33:33.278Z,101437.77
2018-06-02T13:36:03.061Z,101433.40
2018-06-02T13:38:31.874Z,101436.28
2018-06-02T13:41:01.117Z,101434.03
2018-06-02T13:43:29.732Z,101433.89
2018-06-02T13:45:58.327Z,101431.50
2018-06-02T13:48:27.449Z,101435.91
2018-06-02T13:50:56.086Z,101434.23
2018-06-02T13:53:25.872Z,101427.10
2018-06-02T13:55:54.689Z,101429.39
2018-06-02T13:58:23.042Z,101424.48
2018-06-02T14:00:52.721Z,101425.53
2018-06-02T14:03:21.108Z,101422.19
2018-06-02T14:05:49.461Z,101432.52
2018-06-02T14:08:17.850Z,101429.91
2018-06-02T14:10:47.804Z,101443.57
2018-06-02T14:13:18.246Z,101436.14
2018-06-02T14:15:48.221Z,101430.33
2018-06-02T14:18:17.770Z,101432.51
2018-06-02T14:20:46.197Z,101429.18
2018-06-02T14:23:18.361Z,101429.36
2018-06-02T14:25:46.669Z,101433.34
2018-06-02T14:28:16.618Z,101418.25
2018-06-02T14:30:45.054Z,101419.26
2018-06-02T14:33:13.377Z,101422.65
2018-06-02T14:35:41.687Z,101417.90
2018-06-02T14:38:10.120Z,101429.26
2018-06-02T14:40:39.545Z,101426.34
2018-06-02T14:43:08.506Z,101429.94
2018-06-02T14:45:37.609Z,101425.70
2018-06-02T14:48:06.702Z,101426.54
2018-06-02T14:50:36.523Z,101423.41
2018-06-02T14:53:06.025Z,101427.17
2018-06-02T14:55:35.083Z,101421.02
2018-06-02T14:58:03.807Z,101424.05
2018-06-02T15:00:34.441Z,101425.79
2018-06-02T15:03:03.566Z,101426.05
2018-06-02T15:05:31.987Z,101426.27
2018-06-02T15:08:00.298Z,101426.25
2018-06-02T15:10:29.388Z,101423.48
2018-06-02T15:12:58.562Z,101416.77
2018-06-02T15:15:26.955Z,101419.05
2018-06-02T15:17:55.251Z,101417.52
2018-06-02T15:20:24.453Z,101416.67
2018-06-02T15:22:54.397Z,101414.05
2018-06-02T15:25:23.438Z,101411.36
2018-06-02T15:27:52.191Z,101417.02
2018-06-02T15:30:21.266Z,101422.03
2018-06-02T15:32:50.175Z,101419.34
2018-06-02T15:35:18.922Z,101425.13
2018-06-02T15:37:49.435Z,101427.20
2018-06-02T15:40:19.981Z,101430.78
2018-06-02T15:42:49.536Z,101423.68
2018-06-02T15:45:18.140Z,101433.87
2018-06-02T15:47:47.301Z,101433.98
2018-06-02T15:50:16.329Z,101431.70
2018-06-02T15:52:46.030Z,101437.68
2018-06-02T15:55:14.340Z,101437.13
2018-06-02T15:57:44.523Z,101437.86
2018-06-02T16:00:14.209Z,101438.18
2018-06-02T16:02:44.713Z,101444.59
2018-06-02T16:05:13.033Z,101447.70
2018-06-02T16:07:41.826Z,101447.32
2018-06-02T16:10:10.519Z,101449.80
2018-06-02T16:12:38.858Z,101463.48
2018-06-02T16:15:08.835Z,101454.25
2018-06-02T16:17:37.157Z,101460.34
2018-06-02T16:20:06.258Z,101452.81
2018-06-02T16:22:35.371Z,101459.73
2018-06-02T16:25:04.210Z,101452.51
2018-06-02T16:27:32.559Z,101448.41
2018-06-02T16:30:01.768Z,101448.34
2018-06-02T16:32:30.090Z,101456.61
2018-06-02T16:34:59.727Z,101453.54
2018-06-02T16:37:28.257Z,101451.42
2018-06-02T16:39:57.336Z,101451.19
2018-06-02T16:42:25.639Z,101448.79
2018-06-02T16:44:55.750Z,101452.95
2018-06-02T16:47:24.403Z,101451.99
2018-06-02T16:49:52.741Z,101454.30
2018-06-02T16:52:21.193Z,101457.30
2018-06-02T16:54:50.309Z,101450.14
2018-06-02T16:57:19.913Z,101456.05
2018-06-02T16:59:48.801Z,101454.84
2018-06-02T17:02:17.188Z,101452.30
2018-06-02T17:04:46.288Z,101454.94
2018-06-02T17:07:15.865Z,101453.38
2018-06-02T17:09:44.813Z,101450.13
2018-06-02T17:12:14.656Z,101460.02
2018-06-02T17:14:43.648Z,101457.49
2018-06-02T17:17:11.979Z,101468.77
2018-06-02T17:19:42.294Z,101464.17
2018-06-02T17:22:11.558Z,101465.03
2018-06-02T17:24:40.310Z,101467.98
2018-06-02T17:27:11.539Z,101468.52
2018-06-02T17:29:41.121Z,101465.39
2018-06-02T17:32:12.100Z,101466.40
2018-06-02T17:34:41.358Z,101465.08
2018-06-02T17:37:10.543Z,101462.55
2018-06-02T17:39:38.859Z,101465.50
2018-06-02T17:42:07.154Z,101464.79
2018-06-02T17:44:35.520Z,101476.58
2018-06-02T17:47:04.589Z,101472.19
2018-06-02T17:49:32.928Z,101473.74
2018-06-02T17:52:02.029Z,101473.51
2018-06-02T17:54:31.195Z,101473.86
2018-06-02T17:57:01.017Z,101474.51
2018-06-02T17:59:29.342Z,101474.03
2018-06-02T18:01:57.662Z,101476.22
2018-06-02T18:04:25.975Z,101477.91
2018-06-02T18:06:55.129Z,101485.50
2018-06-02T18:09:23.741Z,101483.53
2018-06-02T18:11:52.830Z,101480.58
2018-06-02T18:14:21.143Z,101481.91
2018-06-02T18:16:49.598Z,101481.06
2018-06-02T18:19:18.743Z,101487.50
2018-06-02T18:21:47.062Z,101486.55
2018-06-02T18:24:15.624Z,101484.45
2018-06-02T18:26:43.929Z,101488.34
2018-06-02T18:29:12.254Z,101494.52
2018-06-02T18:31:41.358Z,101497.08
2018-06-02T18:34:09.943Z,101495.46
2018-06-02T18:36:38.291Z,101494.55
2018-06-02T18:39:07.445Z,101486.42
2018-06-02T18:41:36.120Z,101492.57
2018-06-02T18:44:04.735Z,101491.31
2018-06-02T18:46:33.829Z,101501.38
2018-06-02T18:49:03.202Z,101499.80
2018-06-02T18:51:32.117Z,101496.60
2018-06-02T18:54:01.103Z,101501.34
2018-06-02T18:56:29.438Z,101500.07
2018-06-02T18:58:57.752Z,101501.66
2018-06-02T19:01:26.166Z,101501.30
2018-06-02T19:03:55.439Z,101503.83
2018-06-02T19:06:23.830Z,101499.05
2018-06-02T19:08:52.952Z,101494.13
2018-06-02T19:11:22.620Z,101498.67
2018-06-02T19:13:51.222Z,101499.89
2018-06-02T19:16:20.063Z,101499.88
2018-06-02T19:18:48.354Z,101502.36
2018-06-02T19:21:16.679Z,101508.73
2018-06-02T19:23:45.017Z,101517.54
2018-06-02T19:26:13.856Z,101514.13
2018-06-02T19:28:42.237Z,101514.26
2018-06-02T19:31:10.999Z,101522.18
2018-06-02T19:33:39.344Z,101526.72
2018-06-02T19:36:07.648Z,101527.14
2018-06-02T19:38:35.983Z,101530.94
2018-06-02T19:41:05.084Z,101524.66
2018-06-02T19:43:34.184Z,101531.36
2018-06-02T19:46:02.674Z,101522.61
2018-06-02T19:48:31.091Z,101526.48
2018-06-02T19:50:59.435Z,101526.39
2018-06-02T19:53:27.758Z,101524.84
2018-06-02T19:55:56.067Z,101534.20
2018-06-02T19:58:25.220Z,101537.98
2018-06-02T20:00:53.565Z,101527.83
2018-06-02T20:03:22.136Z,101536.68
2018-06-02T20:05:51.722Z,101542.59
2018-06-02T20:08:20.670Z,101538.45
2018-06-02T20:10:49.011Z,101540.98
2018-06-02T20:13:18.080Z,101540.56
2018-06-02T20:15:46.394Z,101543.13
2018-06-02T20:18:15.756Z,101543.59
2018-06-02T20:20:44.149Z,101543.13
2018-06-02T20:23:16.495Z,101548.61
2018-06-02T20:25:45.619Z,101544.36
2018-06-02T20:28:16.140Z,101546.97
2018-06-02T20:30:44.490Z,101548.56
2018-06-02T20:33:13.413Z,101541.15
2018-06-02T20:35:42.322Z,101540.69
2018-06-02T20:38:12.412Z,101540.73
2018-06-02T20:40:40.842Z,101541.07
2018-06-02T20:43:11.020Z,101536.59
2018-06-02T20:45:39.731Z,101544.60
2018-06-02T20:48:08.125Z,101542.41
2018-06-02T20:50:37.243Z,101549.28
2018-06-02T20:53:06.348Z,101559.34
2018-06-02T20:55:34.653Z,101559.81
2018-06-02T20:58:03.793Z,101553.54
2018-06-02T21:00:32.933Z,101563.64
2018-06-02T21:03:01.795Z,101561.27
2018-06-02T21:05:31.054Z,101566.28
2018-06-02T21:08:00.971Z,101569.20
2018-06-02T21:10:30.752Z,101569.58
2018-06-02T21:12:59.094Z,101572.56
2018-06-02T21:15:30.263Z,101567.89
2018-06-02T21:17:58.558Z,101572.98
2018-06-02T21:20:27.727Z,101577.66
2018-06-02T21:22:57.646Z,101566.36
2018-06-02T21:25:27.111Z,101573.55
2018-06-02T21:27:56.533Z,101564.25
2018-06-02T21:30:26.717Z,101562.56
2018-06-02T21:32:55.998Z,101566.81
2018-06-02T21:35:24.321Z,101561.45
2018-06-02T21:37:52.824Z,101563.48
2018-06-02T21:40:21.905Z,101561.77
2018-06-02T21:42:50.973Z,101568.50
2018-06-02T21:45:19.380Z,101568.99
2018-06-02T21:47:49.136Z,101572.36
2018-06-02T21:50:18.057Z,101572.75
2018-06-02T21:52:46.443Z,101571.09
2018-06-02T21:55:14.740Z,101575.38
2018-06-02T21:57:43.824Z,101574.98
2018-06-02T22:00:12.155Z,101574.08
2018-06-02T22:02:40.458Z,101573.27
2018-06-02T22:05:09.679Z,101574.43
2018-06-02T22:07:38.058Z,101571.55
2018-06-02T22:10:07.620Z,101576.11
2018-06-02T22:12:35.923Z,101580.46
2018-06-02T22:15:04.262Z,101585.41
2018-06-02T22:17:33.359Z,101587.06
2018-06-02T22:20:02.418Z,101585.80
2018-06-02T22:22:31.495Z,101585.27
2018-06-02T22:25:01.059Z,101585.30
2018-06-02T22:27:31.094Z,101582.36
2018-06-02T22:29:59.404Z,101582.08
2018-06-02T22:32:27.763Z,101582.53
2018-06-02T22:34:56.499Z,101575.06
2018-06-02T22:37:25.604Z,101577.48
2018-06-02T22:39:57.309Z,101577.90
2018-06-02T22:42:25.674Z,101574.98
2018-06-02T22:44:54.281Z,101574.64
2018-06-02T22:47:23.220Z,101574.19
2018-06-02T22:49:53.060Z,101569.13
2018-06-02T22:52:22.122Z,101579.13
2018-06-02T22:54:51.645Z,101574.85
2018-06-02T22:57:22.835Z,101576.57
2018-06-02T22:59:51.285Z,101577.58
2018-06-02T23:02:20.428Z,101579.66
2018-06-02T23:04:48.741Z,101582.28
2018-06-02T23:07:18.380Z,101582.73
2018-06-02T23:09:46.761Z,101581.86
2018-06-02T23:12:16.291Z,101582.31
2018-06-02T23:14:44.598Z,101582.77
2018-06-02T23:17:12.921Z,101581.11
2018-06-02T23:19:43.560Z,101581.02
2018-06-02T23:25:51.234Z,101582.59
2018-06-02T23:28:20.830Z,101579.22
2018-06-02T23:30:50.485Z,101584.72
2018-06-02T23:33:22.180Z,101583.42
2018-06-02T23:35:51.801Z,101585.55
2018-06-02T23:38:21.446Z,101580.81
2018-06-02T23:40:50.874Z,101582.50
2018-06-02T23:43:21.120Z,101582.11
2018-06-02T23:45:50.669Z,101578.73
2018-06-02T23:48:20.297Z,101579.58
2018-06-02T23:50:50.137Z,101582.91
2018-06-02T23:53:19.888Z,101580.00
2018-06-02T23:55:49.981Z,101582.95
2018-06-02T23:58:19.544Z,101577.45
